sensor_id;sensor_type;location;lat;lon;timestamp;temperature;humidity
76102;SHT30;64830;46.910;6.354;2023-12-14T00:01:52;4.53;85.67
76102;SHT30;64830;46.910;6.354;2023-12-14T00:04:17;4.38;85.43
76102;SHT30;64830;46.910;6.354;2023-12-14T00:06:43;4.32;85.54
76102;SHT30;64830;46.910;6.354;2023-12-14T00:09:08;4.30;85.49
76102;SHT30;64830;46.910;6.354;2023-12-14T00:11:40;4.26;85.86
76102;SHT30;64830;46.910;6.354;2023-12-14T00:14:06;4.27;85.77
76102;SHT30;64830;46.910;6.354;2023-12-14T00:16:31;4.29;85.67
76102;SHT30;64830;46.910;6.354;2023-12-14T00:18:57;4.29;85.43
76102;SHT30;64830;46.910;6.354;2023-12-14T00:21:22;4.29;85.65
76102;SHT30;64830;46.910;6.354;2023-12-14T00:23:48;4.30;85.82
76102;SHT30;64830;46.910;6.354;2023-12-14T00:26:13;4.30;86.18
76102;SHT30;64830;46.910;6.354;2023-12-14T00:28:39;4.33;86.20
76102;SHT30;64830;46.910;6.354;2023-12-14T00:31:04;4.32;86.35
76102;SHT30;64830;46.910;6.354;2023-12-14T00:33:30;4.36;86.22
76102;SHT30;64830;46.910;6.354;2023-12-14T00:35:55;4.38;86.01
76102;SHT30;64830;46.910;6.354;2023-12-14T00:38:21;4.37;85.92
76102;SHT30;64830;46.910;6.354;2023-12-14T00:40:46;4.37;86.32
76102;SHT30;64830;46.910;6.354;2023-12-14T00:43:11;4.38;86.26
76102;SHT30;64830;46.910;6.354;2023-12-14T00:45:37;4.34;86.37
76102;SHT30;64830;46.910;6.354;2023-12-14T00:48:02;4.33;86.56
76102;SHT30;64830;46.910;6.354;2023-12-14T00:50:28;4.36;86.67
76102;SHT30;64830;46.910;6.354;2023-12-14T00:52:53;4.36;86.50
76102;SHT30;64830;46.910;6.354;2023-12-14T00:55:20;4.33;86.43
76102;SHT30;64830;46.910;6.354;2023-12-14T00:57:45;4.34;86.48
76102;SHT30;64830;46.910;6.354;2023-12-14T01:00:11;4.34;85.88
76102;SHT30;64830;46.910;6.354;2023-12-14T01:02:37;4.24;85.39
76102;SHT30;64830;46.910;6.354;2023-12-14T01:05:03;4.20;86.03
76102;SHT30;64830;46.910;6.354;2023-12-14T01:07:29;4.14;85.72
76102;SHT30;64830;46.910;6.354;2023-12-14T01:09:54;4.10;86.39
76102;SHT30;64830;46.910;6.354;2023-12-14T01:12:19;4.09;86.41
76102;SHT30;64830;46.910;6.354;2023-12-14T01:14:45;4.09;86.25
76102;SHT30;64830;46.910;6.354;2023-12-14T01:17:10;4.09;86.24
76102;SHT30;64830;46.910;6.354;2023-12-14T01:19:39;4.07;86.20
76102;SHT30;64830;46.910;6.354;2023-12-14T01:22:05;4.06;86.43
76102;SHT30;64830;46.910;6.354;2023-12-14T01:24:30;4.02;86.33
76102;SHT30;64830;46.910;6.354;2023-12-14T01:26:56;4.03;86.45
76102;SHT30;64830;46.910;6.354;2023-12-14T01:29:21;4.03;86.70
76102;SHT30;64830;46.910;6.354;2023-12-14T01:31:46;4.03;86.58
76102;SHT30;64830;46.910;6.354;2023-12-14T01:34:12;4.06;86.60
76102;SHT30;64830;46.910;6.354;2023-12-14T01:36:37;4.07;86.68
76102;SHT30;64830;46.910;6.354;2023-12-14T01:39:03;4.10;87.08
76102;SHT30;64830;46.910;6.354;2023-12-14T01:41:28;4.11;87.33
76102;SHT30;64830;46.910;6.354;2023-12-14T01:43:53;4.16;87.35
76102;SHT30;64830;46.910;6.354;2023-12-14T01:46:19;4.19;87.32
76102;SHT30;64830;46.910;6.354;2023-12-14T01:48:44;4.20;87.36
76102;SHT30;64830;46.910;6.354;2023-12-14T01:51:10;4.23;87.29
76102;SHT30;64830;46.910;6.354;2023-12-14T01:53:35;4.27;87.35
76102;SHT30;64830;46.910;6.354;2023-12-14T01:56:00;4.27;87.36
76102;SHT30;64830;46.910;6.354;2023-12-14T01:58:26;4.30;87.26
76102;SHT30;64830;46.910;6.354;2023-12-14T02:03:23;4.29;86.77
76102;SHT30;64830;46.910;6.354;2023-12-14T02:05:48;4.32;87.07
76102;SHT30;64830;46.910;6.354;2023-12-14T02:08:14;4.33;87.25
76102;SHT30;64830;46.910;6.354;2023-12-14T02:10:39;4.36;87.39
76102;SHT30;64830;46.910;6.354;2023-12-14T02:13:04;4.41;87.38
76102;SHT30;64830;46.910;6.354;2023-12-14T02:15:30;4.44;87.40
76102;SHT30;64830;46.910;6.354;2023-12-14T02:17:55;4.44;87.14
76102;SHT30;64830;46.910;6.354;2023-12-14T02:20:21;4.47;87.14
76102;SHT30;64830;46.910;6.354;2023-12-14T02:22:53;4.47;87.46
76102;SHT30;64830;46.910;6.354;2023-12-14T02:25:21;4.51;87.73
76102;SHT30;64830;46.910;6.354;2023-12-14T02:27:47;4.54;88.16
76102;SHT30;64830;46.910;6.354;2023-12-14T02:30:13;4.57;88.23
76102;SHT30;64830;46.910;6.354;2023-12-14T02:32:39;4.62;88.73
76102;SHT30;64830;46.910;6.354;2023-12-14T02:35:05;4.64;88.74
76102;SHT30;64830;46.910;6.354;2023-12-14T02:37:31;4.60;89.07
76102;SHT30;64830;46.910;6.354;2023-12-14T02:39:57;4.61;89.25
76102;SHT30;64830;46.910;6.354;2023-12-14T02:42:23;4.60;89.13
76102;SHT30;64830;46.910;6.354;2023-12-14T02:44:49;4.58;89.30
76102;SHT30;64830;46.910;6.354;2023-12-14T02:47:15;4.58;89.39
76102;SHT30;64830;46.910;6.354;2023-12-14T02:49:41;4.55;89.45
76102;SHT30;64830;46.910;6.354;2023-12-14T02:52:06;4.55;89.43
76102;SHT30;64830;46.910;6.354;2023-12-14T02:54:32;4.57;89.49
76102;SHT30;64830;46.910;6.354;2023-12-14T02:56:57;4.55;89.43
76102;SHT30;64830;46.910;6.354;2023-12-14T02:59:22;4.58;89.49
76102;SHT30;64830;46.910;6.354;2023-12-14T03:01:48;4.57;89.01
76102;SHT30;64830;46.910;6.354;2023-12-14T03:04:13;4.57;89.07
76102;SHT30;64830;46.910;6.354;2023-12-14T03:06:39;4.58;89.07
76102;SHT30;64830;46.910;6.354;2023-12-14T03:09:04;4.57;88.99
76102;SHT30;64830;46.910;6.354;2023-12-14T03:11:30;4.54;89.06
76102;SHT30;64830;46.910;6.354;2023-12-14T03:13:56;4.50;89.21
76102;SHT30;64830;46.910;6.354;2023-12-14T03:16:21;4.51;89.42
76102;SHT30;64830;46.910;6.354;2023-12-14T03:18:47;4.50;89.54
76102;SHT30;64830;46.910;6.354;2023-12-14T03:21:17;4.47;89.46
76102;SHT30;64830;46.910;6.354;2023-12-14T03:23:43;4.48;89.78
76102;SHT30;64830;46.910;6.354;2023-12-14T03:26:08;4.44;89.83
76102;SHT30;64830;46.910;6.354;2023-12-14T03:28:33;4.43;89.84
76102;SHT30;64830;46.910;6.354;2023-12-14T03:30:59;4.40;89.87
76102;SHT30;64830;46.910;6.354;2023-12-14T03:33:25;4.43;89.88
76102;SHT30;64830;46.910;6.354;2023-12-14T03:35:50;4.38;89.45
76102;SHT30;64830;46.910;6.354;2023-12-14T03:38:16;4.36;89.78
76102;SHT30;64830;46.910;6.354;2023-12-14T03:40:41;4.32;88.96
76102;SHT30;64830;46.910;6.354;2023-12-14T03:43:06;4.27;89.03
76102;SHT30;64830;46.910;6.354;2023-12-14T03:45:32;4.23;89.08
76102;SHT30;64830;46.910;6.354;2023-12-14T03:47:58;4.20;89.36
76102;SHT30;64830;46.910;6.354;2023-12-14T03:50:23;4.17;89.49
76102;SHT30;64830;46.910;6.354;2023-12-14T03:52:48;4.19;89.42
76102;SHT30;64830;46.910;6.354;2023-12-14T03:55:14;4.21;89.41
76102;SHT30;64830;46.910;6.354;2023-12-14T03:57:42;4.20;89.41
76102;SHT30;64830;46.910;6.354;2023-12-14T04:00:12;4.19;89.12
76102;SHT30;64830;46.910;6.354;2023-12-14T04:02:38;4.19;89.01
76102;SHT30;64830;46.910;6.354;2023-12-14T04:05:05;4.21;89.00
76102;SHT30;64830;46.910;6.354;2023-12-14T04:07:31;4.23;89.04
76102;SHT30;64830;46.910;6.354;2023-12-14T04:09:56;4.24;88.85
76102;SHT30;64830;46.910;6.354;2023-12-14T04:12:22;4.26;88.79
76102;SHT30;64830;46.910;6.354;2023-12-14T04:14:47;4.26;88.65
76102;SHT30;64830;46.910;6.354;2023-12-14T04:17:12;4.24;88.56
76102;SHT30;64830;46.910;6.354;2023-12-14T04:19:38;4.26;88.57
76102;SHT30;64830;46.910;6.354;2023-12-14T04:22:04;4.26;88.44
76102;SHT30;64830;46.910;6.354;2023-12-14T04:24:30;4.24;88.57
76102;SHT30;64830;46.910;6.354;2023-12-14T04:26:55;4.30;88.60
76102;SHT30;64830;46.910;6.354;2023-12-14T04:29:21;4.34;88.42
76102;SHT30;64830;46.910;6.354;2023-12-14T04:31:46;4.33;88.21
76102;SHT30;64830;46.910;6.354;2023-12-14T04:34:12;4.34;88.22
76102;SHT30;64830;46.910;6.354;2023-12-14T04:36:41;4.36;88.18
76102;SHT30;64830;46.910;6.354;2023-12-14T04:39:07;4.38;88.25
76102;SHT30;64830;46.910;6.354;2023-12-14T04:41:32;4.40;88.31
76102;SHT30;64830;46.910;6.354;2023-12-14T04:43:57;4.45;88.43
76102;SHT30;64830;46.910;6.354;2023-12-14T04:46:23;4.44;88.61
76102;SHT30;64830;46.910;6.354;2023-12-14T04:48:48;4.47;88.64
76102;SHT30;64830;46.910;6.354;2023-12-14T04:51:14;4.45;88.52
76102;SHT30;64830;46.910;6.354;2023-12-14T04:53:39;4.41;88.63
76102;SHT30;64830;46.910;6.354;2023-12-14T04:56:09;4.37;88.67
76102;SHT30;64830;46.910;6.354;2023-12-14T04:58:34;4.32;88.81
76102;SHT30;64830;46.910;6.354;2023-12-14T05:01:00;4.27;88.95
76102;SHT30;64830;46.910;6.354;2023-12-14T05:03:25;4.26;88.83
76102;SHT30;64830;46.910;6.354;2023-12-14T05:05:50;4.24;88.81
76102;SHT30;64830;46.910;6.354;2023-12-14T05:08:16;4.21;89.04
76102;SHT30;64830;46.910;6.354;2023-12-14T05:10:41;4.27;89.08
76102;SHT30;64830;46.910;6.354;2023-12-14T05:13:07;4.27;89.05
76102;SHT30;64830;46.910;6.354;2023-12-14T05:15:32;4.29;89.16
76102;SHT30;64830;46.910;6.354;2023-12-14T05:17:58;4.32;89.17
76102;SHT30;64830;46.910;6.354;2023-12-14T05:20:23;4.34;89.20
76102;SHT30;64830;46.910;6.354;2023-12-14T05:22:48;4.33;89.34
76102;SHT30;64830;46.910;6.354;2023-12-14T05:25:14;4.34;89.26
76102;SHT30;64830;46.910;6.354;2023-12-14T05:27:40;4.40;89.30
76102;SHT30;64830;46.910;6.354;2023-12-14T05:30:06;4.38;89.48
76102;SHT30;64830;46.910;6.354;2023-12-14T05:32:32;4.37;89.51
76102;SHT30;64830;46.910;6.354;2023-12-14T05:34:57;4.43;89.83
76102;SHT30;64830;46.910;6.354;2023-12-14T05:37:24;4.37;89.82
76102;SHT30;64830;46.910;6.354;2023-12-14T05:39:50;4.40;89.85
76102;SHT30;64830;46.910;6.354;2023-12-14T05:42:16;4.41;89.66
76102;SHT30;64830;46.910;6.354;2023-12-14T05:44:42;4.40;89.66
76102;SHT30;64830;46.910;6.354;2023-12-14T05:47:09;4.37;89.71
76102;SHT30;64830;46.910;6.354;2023-12-14T05:49:35;4.37;89.79
76102;SHT30;64830;46.910;6.354;2023-12-14T05:52:00;4.38;89.77
76102;SHT30;64830;46.910;6.354;2023-12-14T05:54:26;4.38;89.84
76102;SHT30;64830;46.910;6.354;2023-12-14T05:56:51;4.37;89.73
76102;SHT30;64830;46.910;6.354;2023-12-14T05:59:16;4.34;89.57
76102;SHT30;64830;46.910;6.354;2023-12-14T06:01:42;4.34;89.58
76102;SHT30;64830;46.910;6.354;2023-12-14T06:04:08;4.33;89.45
76102;SHT30;64830;46.910;6.354;2023-12-14T06:06:34;4.33;89.66
76102;SHT30;64830;46.910;6.354;2023-12-14T06:08:59;4.36;89.67
76102;SHT30;64830;46.910;6.354;2023-12-14T06:11:24;4.40;89.69
76102;SHT30;64830;46.910;6.354;2023-12-14T06:13:50;4.36;89.19
76102;SHT30;64830;46.910;6.354;2023-12-14T06:16:16;4.37;89.54
76102;SHT30;64830;46.910;6.354;2023-12-14T06:18:41;4.36;89.68
76102;SHT30;64830;46.910;6.354;2023-12-14T06:21:08;4.40;89.70
76102;SHT30;64830;46.910;6.354;2023-12-14T06:23:35;4.37;89.57
76102;SHT30;64830;46.910;6.354;2023-12-14T06:26:02;4.34;89.54
76102;SHT30;64830;46.910;6.354;2023-12-14T06:28:29;4.33;89.36
76102;SHT30;64830;46.910;6.354;2023-12-14T06:30:55;4.32;89.68
76102;SHT30;64830;46.910;6.354;2023-12-14T06:33:21;4.36;89.75
76102;SHT30;64830;46.910;6.354;2023-12-14T06:35:47;4.38;89.81
76102;SHT30;64830;46.910;6.354;2023-12-14T06:38:12;4.41;89.74
76102;SHT30;64830;46.910;6.354;2023-12-14T06:40:38;4.40;89.65
76102;SHT30;64830;46.910;6.354;2023-12-14T06:43:04;4.37;89.66
76102;SHT30;64830;46.910;6.354;2023-12-14T06:45:30;4.38;89.74
76102;SHT30;64830;46.910;6.354;2023-12-14T06:47:55;4.37;89.67
76102;SHT30;64830;46.910;6.354;2023-12-14T06:50:21;4.36;89.76
76102;SHT30;64830;46.910;6.354;2023-12-14T06:52:46;4.36;89.85
76102;SHT30;64830;46.910;6.354;2023-12-14T06:55:12;4.33;89.55
76102;SHT30;64830;46.910;6.354;2023-12-14T06:57:40;4.30;89.54
76102;SHT30;64830;46.910;6.354;2023-12-14T07:00:07;4.30;89.55
76102;SHT30;64830;46.910;6.354;2023-12-14T07:02:33;4.26;89.64
76102;SHT30;64830;46.910;6.354;2023-12-14T07:04:58;4.29;89.70
76102;SHT30;64830;46.910;6.354;2023-12-14T07:07:24;4.29;89.66
76102;SHT30;64830;46.910;6.354;2023-12-14T07:09:50;4.33;89.52
76102;SHT30;64830;46.910;6.354;2023-12-14T07:12:15;4.29;89.25
76102;SHT30;64830;46.910;6.354;2023-12-14T07:14:40;4.32;89.25
76102;SHT30;64830;46.910;6.354;2023-12-14T07:17:06;4.34;89.25
76102;SHT30;64830;46.910;6.354;2023-12-14T07:19:31;4.33;89.09
76102;SHT30;64830;46.910;6.354;2023-12-14T07:21:57;4.32;89.08
76102;SHT30;64830;46.910;6.354;2023-12-14T07:24:22;4.32;89.03
76102;SHT30;64830;46.910;6.354;2023-12-14T07:26:48;4.30;89.12
76102;SHT30;64830;46.910;6.354;2023-12-14T07:29:13;4.30;89.25
76102;SHT30;64830;46.910;6.354;2023-12-14T07:31:38;4.33;89.21
76102;SHT30;64830;46.910;6.354;2023-12-14T07:34:04;4.34;89.25
76102;SHT30;64830;46.910;6.354;2023-12-14T07:36:29;4.33;89.38
76102;SHT30;64830;46.910;6.354;2023-12-14T07:38:55;4.36;89.50
76102;SHT30;64830;46.910;6.354;2023-12-14T07:41:20;4.34;89.32
76102;SHT30;64830;46.910;6.354;2023-12-14T07:43:48;4.33;89.44
76102;SHT30;64830;46.910;6.354;2023-12-14T07:46:13;4.34;89.62
76102;SHT30;64830;46.910;6.354;2023-12-14T07:48:39;4.38;89.61
76102;SHT30;64830;46.910;6.354;2023-12-14T07:51:05;4.43;89.45
76102;SHT30;64830;46.910;6.354;2023-12-14T07:53:30;4.47;89.44
76102;SHT30;64830;46.910;6.354;2023-12-14T07:55:56;4.44;89.36
76102;SHT30;64830;46.910;6.354;2023-12-14T07:58:21;4.47;89.50
76102;SHT30;64830;46.910;6.354;2023-12-14T08:00:46;4.48;89.28
76102;SHT30;64830;46.910;6.354;2023-12-14T08:03:12;4.48;88.77
76102;SHT30;64830;46.910;6.354;2023-12-14T08:05:37;4.51;88.62
76102;SHT30;64830;46.910;6.354;2023-12-14T08:08:03;4.47;88.81
76102;SHT30;64830;46.910;6.354;2023-12-14T08:10:28;4.45;88.58
76102;SHT30;64830;46.910;6.354;2023-12-14T08:12:53;4.41;88.00
76102;SHT30;64830;46.910;6.354;2023-12-14T08:15:19;4.41;88.16
76102;SHT30;64830;46.910;6.354;2023-12-14T08:17:44;4.38;88.31
76102;SHT30;64830;46.910;6.354;2023-12-14T08:20:10;4.40;88.02
76102;SHT30;64830;46.910;6.354;2023-12-14T08:22:36;4.41;88.07
76102;SHT30;64830;46.910;6.354;2023-12-14T08:25:02;4.43;88.35
76102;SHT30;64830;46.910;6.354;2023-12-14T08:27:29;4.45;88.42
76102;SHT30;64830;46.910;6.354;2023-12-14T08:29:54;4.47;88.29
76102;SHT30;64830;46.910;6.354;2023-12-14T08:32:19;4.48;88.29
76102;SHT30;64830;46.910;6.354;2023-12-14T08:34:45;4.53;88.22
76102;SHT30;64830;46.910;6.354;2023-12-14T08:37:10;4.53;88.31
76102;SHT30;64830;46.910;6.354;2023-12-14T08:39:35;4.51;87.19
76102;SHT30;64830;46.910;6.354;2023-12-14T08:42:01;4.47;87.65
76102;SHT30;64830;46.910;6.354;2023-12-14T08:44:26;4.45;87.87
76102;SHT30;64830;46.910;6.354;2023-12-14T08:46:52;4.44;87.98
76102;SHT30;64830;46.910;6.354;2023-12-14T08:49:17;4.50;87.88
76102;SHT30;64830;46.910;6.354;2023-12-14T08:51:43;4.48;87.49
76102;SHT30;64830;46.910;6.354;2023-12-14T08:54:08;4.40;86.37
76102;SHT30;64830;46.910;6.354;2023-12-14T08:56:34;4.33;87.54
76102;SHT30;64830;46.910;6.354;2023-12-14T08:59:00;4.30;87.49
76102;SHT30;64830;46.910;6.354;2023-12-14T09:01:29;4.29;87.23
76102;SHT30;64830;46.910;6.354;2023-12-14T09:03:54;4.26;87.28
76102;SHT30;64830;46.910;6.354;2023-12-14T09:06:19;4.29;87.63
76102;SHT30;64830;46.910;6.354;2023-12-14T09:08:45;4.34;87.87
76102;SHT30;64830;46.910;6.354;2023-12-14T09:11:11;4.34;86.90
76102;SHT30;64830;46.910;6.354;2023-12-14T09:13:37;4.34;87.64
76102;SHT30;64830;46.910;6.354;2023-12-14T09:16:03;4.34;87.67
76102;SHT30;64830;46.910;6.354;2023-12-14T09:18:28;4.40;87.47
76102;SHT30;64830;46.910;6.354;2023-12-14T09:20:53;4.40;87.72
76102;SHT30;64830;46.910;6.354;2023-12-14T09:23:19;4.43;87.69
76102;SHT30;64830;46.910;6.354;2023-12-14T09:25:47;4.48;87.43
76102;SHT30;64830;46.910;6.354;2023-12-14T09:28:13;4.45;87.01
76102;SHT30;64830;46.910;6.354;2023-12-14T09:30:38;4.44;87.55
76102;SHT30;64830;46.910;6.354;2023-12-14T09:33:04;4.45;87.12
76102;SHT30;64830;46.910;6.354;2023-12-14T09:35:29;4.43;87.25
76102;SHT30;64830;46.910;6.354;2023-12-14T09:37:55;4.45;87.64
76102;SHT30;64830;46.910;6.354;2023-12-14T09:40:21;4.48;87.82
76102;SHT30;64830;46.910;6.354;2023-12-14T09:42:48;4.54;87.66
76102;SHT30;64830;46.910;6.354;2023-12-14T09:45:13;4.57;87.87
76102;SHT30;64830;46.910;6.354;2023-12-14T09:47:41;4.61;88.00
76102;SHT30;64830;46.910;6.354;2023-12-14T09:50:07;4.68;88.09
76102;SHT30;64830;46.910;6.354;2023-12-14T09:52:33;4.68;87.66
76102;SHT30;64830;46.910;6.354;2023-12-14T09:54:59;4.69;87.08
76102;SHT30;64830;46.910;6.354;2023-12-14T09:57:24;4.71;87.45
76102;SHT30;64830;46.910;6.354;2023-12-14T09:59:54;4.71;87.55
76102;SHT30;64830;46.910;6.354;2023-12-14T10:02:25;4.65;87.09
76102;SHT30;64830;46.910;6.354;2023-12-14T10:04:50;4.64;87.48
76102;SHT30;64830;46.910;6.354;2023-12-14T10:07:15;4.67;87.51
76102;SHT30;64830;46.910;6.354;2023-12-14T10:09:42;4.69;87.73
76102;SHT30;64830;46.910;6.354;2023-12-14T10:12:08;4.72;87.17
76102;SHT30;64830;46.910;6.354;2023-12-14T10:14:35;4.71;87.50
76102;SHT30;64830;46.910;6.354;2023-12-14T10:17:16;4.73;87.24
76102;SHT30;64830;46.910;6.354;2023-12-14T10:19:45;4.76;87.44
76102;SHT30;64830;46.910;6.354;2023-12-14T10:22:16;4.81;87.63
76102;SHT30;64830;46.910;6.354;2023-12-14T10:24:47;4.86;87.63
76102;SHT30;64830;46.910;6.354;2023-12-14T10:27:14;4.88;87.57
76102;SHT30;64830;46.910;6.354;2023-12-14T10:29:41;4.92;87.42
76102;SHT30;64830;46.910;6.354;2023-12-14T10:32:07;4.95;87.52
76102;SHT30;64830;46.910;6.354;2023-12-14T10:34:34;4.99;87.52
76102;SHT30;64830;46.910;6.354;2023-12-14T10:37:01;4.99;87.42
76102;SHT30;64830;46.910;6.354;2023-12-14T10:39:30;5.01;87.66
76102;SHT30;64830;46.910;6.354;2023-12-14T10:41:57;5.05;87.75
76102;SHT30;64830;46.910;6.354;2023-12-14T10:44:25;5.05;87.35
76102;SHT30;64830;46.910;6.354;2023-12-14T10:46:57;5.03;87.77
76102;SHT30;64830;46.910;6.354;2023-12-14T10:49:27;5.05;87.68
76102;SHT30;64830;46.910;6.354;2023-12-14T10:51:55;5.00;87.36
76102;SHT30;64830;46.910;6.354;2023-12-14T10:54:21;4.96;87.55
76102;SHT30;64830;46.910;6.354;2023-12-14T10:56:48;4.97;87.55
76102;SHT30;64830;46.910;6.354;2023-12-14T10:59:15;4.90;87.74
76102;SHT30;64830;46.910;6.354;2023-12-14T11:01:41;4.93;88.15
76102;SHT30;64830;46.910;6.354;2023-12-14T11:04:07;4.99;88.06
76102;SHT30;64830;46.910;6.354;2023-12-14T11:06:38;5.05;87.86
76102;SHT30;64830;46.910;6.354;2023-12-14T11:09:08;5.06;87.51
76102;SHT30;64830;46.910;6.354;2023-12-14T11:11:43;5.01;87.32
76102;SHT30;64830;46.910;6.354;2023-12-14T11:14:12;5.01;87.52
76102;SHT30;64830;46.910;6.354;2023-12-14T11:16:39;4.97;87.45
76102;SHT30;64830;46.910;6.354;2023-12-14T11:19:38;5.01;87.89
76102;SHT30;64830;46.910;6.354;2023-12-14T11:22:13;4.99;88.00
76102;SHT30;64830;46.910;6.354;2023-12-14T11:24:52;5.00;88.16
76102;SHT30;64830;46.910;6.354;2023-12-14T11:27:20;4.99;88.08
76102;SHT30;64830;46.910;6.354;2023-12-14T11:29:47;4.96;87.95
76102;SHT30;64830;46.910;6.354;2023-12-14T11:32:13;4.99;88.28
76102;SHT30;64830;46.910;6.354;2023-12-14T11:34:39;5.00;88.22
76102;SHT30;64830;46.910;6.354;2023-12-14T11:37:05;5.00;88.28
76102;SHT30;64830;46.910;6.354;2023-12-14T11:39:31;5.01;88.39
76102;SHT30;64830;46.910;6.354;2023-12-14T11:42:03;5.05;88.36
76102;SHT30;64830;46.910;6.354;2023-12-14T11:44:30;5.06;88.42
76102;SHT30;64830;46.910;6.354;2023-12-14T11:46:58;5.05;88.52
76102;SHT30;64830;46.910;6.354;2023-12-14T11:49:25;5.06;88.91
76102;SHT30;64830;46.910;6.354;2023-12-14T11:51:56;5.10;88.96
76102;SHT30;64830;46.910;6.354;2023-12-14T11:54:22;5.15;89.10
76102;SHT30;64830;46.910;6.354;2023-12-14T11:56:48;5.12;89.10
76102;SHT30;64830;46.910;6.354;2023-12-14T11:59:18;5.06;89.10
76102;SHT30;64830;46.910;6.354;2023-12-14T12:01:59;5.03;89.30
76102;SHT30;64830;46.910;6.354;2023-12-14T12:04:26;4.97;88.44
76102;SHT30;64830;46.910;6.354;2023-12-14T12:07:03;4.96;88.48
76102;SHT30;64830;46.910;6.354;2023-12-14T12:09:33;4.97;88.76
76102;SHT30;64830;46.910;6.354;2023-12-14T12:11:59;4.97;88.98
76102;SHT30;64830;46.910;6.354;2023-12-14T12:14:24;4.97;89.11
76102;SHT30;64830;46.910;6.354;2023-12-14T12:16:49;4.96;88.72
76102;SHT30;64830;46.910;6.354;2023-12-14T12:19:18;4.90;87.94
76102;SHT30;64830;46.910;6.354;2023-12-14T12:21:43;4.86;87.65
76102;SHT30;64830;46.910;6.354;2023-12-14T12:24:08;4.82;87.89
76102;SHT30;64830;46.910;6.354;2023-12-14T12:26:34;4.83;87.91
76102;SHT30;64830;46.910;6.354;2023-12-14T12:28:59;4.85;87.71
76102;SHT30;64830;46.910;6.354;2023-12-14T12:31:26;4.89;87.97
76102;SHT30;64830;46.910;6.354;2023-12-14T12:33:52;4.88;87.55
76102;SHT30;64830;46.910;6.354;2023-12-14T12:36:17;4.89;87.47
76102;SHT30;64830;46.910;6.354;2023-12-14T12:38:43;4.92;87.70
76102;SHT30;64830;46.910;6.354;2023-12-14T12:41:08;4.93;87.77
76102;SHT30;64830;46.910;6.354;2023-12-14T12:43:33;4.96;87.66
76102;SHT30;64830;46.910;6.354;2023-12-14T12:45:59;4.97;88.06
76102;SHT30;64830;46.910;6.354;2023-12-14T12:48:24;4.96;87.86
76102;SHT30;64830;46.910;6.354;2023-12-14T12:50:50;5.00;88.14
76102;SHT30;64830;46.910;6.354;2023-12-14T12:53:15;5.03;88.15
76102;SHT30;64830;46.910;6.354;2023-12-14T12:55:41;5.06;88.29
76102;SHT30;64830;46.910;6.354;2023-12-14T12:58:06;5.09;88.47
76102;SHT30;64830;46.910;6.354;2023-12-14T13:00:32;5.16;88.22
76102;SHT30;64830;46.910;6.354;2023-12-14T13:03:00;5.19;88.35
76102;SHT30;64830;46.910;6.354;2023-12-14T13:05:27;5.26;88.42
76102;SHT30;64830;46.910;6.354;2023-12-14T13:07:53;5.27;88.39
76102;SHT30;64830;46.910;6.354;2023-12-14T13:10:20;5.31;88.46
76102;SHT30;64830;46.910;6.354;2023-12-14T13:12:50;5.34;88.25
76102;SHT30;64830;46.910;6.354;2023-12-14T13:15:15;5.37;88.31
76102;SHT30;64830;46.910;6.354;2023-12-14T13:17:41;5.40;88.20
76102;SHT30;64830;46.910;6.354;2023-12-14T13:20:07;5.43;88.25
76102;SHT30;64830;46.910;6.354;2023-12-14T13:22:32;5.44;87.98
76102;SHT30;64830;46.910;6.354;2023-12-14T13:24:58;5.47;88.06
76102;SHT30;64830;46.910;6.354;2023-12-14T13:27:23;5.48;87.77
76102;SHT30;64830;46.910;6.354;2023-12-14T13:29:50;5.50;87.69
76102;SHT30;64830;46.910;6.354;2023-12-14T13:32:15;5.43;87.62
76102;SHT30;64830;46.910;6.354;2023-12-14T13:34:41;5.43;87.78
76102;SHT30;64830;46.910;6.354;2023-12-14T13:37:06;5.41;87.89
76102;SHT30;64830;46.910;6.354;2023-12-14T13:39:34;5.41;87.96
76102;SHT30;64830;46.910;6.354;2023-12-14T13:42:04;5.41;87.77
76102;SHT30;64830;46.910;6.354;2023-12-14T13:44:30;5.43;87.54
76102;SHT30;64830;46.910;6.354;2023-12-14T13:46:55;5.38;87.85
76102;SHT30;64830;46.910;6.354;2023-12-14T13:49:20;5.38;87.79
76102;SHT30;64830;46.910;6.354;2023-12-14T13:51:46;5.37;87.84
76102;SHT30;64830;46.910;6.354;2023-12-14T13:54:11;5.35;87.94
76102;SHT30;64830;46.910;6.354;2023-12-14T13:56:37;5.38;87.85
76102;SHT30;64830;46.910;6.354;2023-12-14T13:59:03;5.35;87.81
76102;SHT30;64830;46.910;6.354;2023-12-14T14:01:28;5.27;87.44
76102;SHT30;64830;46.910;6.354;2023-12-14T14:03:53;5.17;87.28
76102;SHT30;64830;46.910;6.354;2023-12-14T14:06:19;5.13;87.73
76102;SHT30;64830;46.910;6.354;2023-12-14T14:08:45;5.13;87.81
76102;SHT30;64830;46.910;6.354;2023-12-14T14:11:11;5.16;88.07
76102;SHT30;64830;46.910;6.354;2023-12-14T14:13:37;5.19;88.13
76102;SHT30;64830;46.910;6.354;2023-12-14T14:16:03;5.17;88.28
76102;SHT30;64830;46.910;6.354;2023-12-14T14:18:30;5.23;88.26
76102;SHT30;64830;46.910;6.354;2023-12-14T14:20:56;5.27;88.30
76102;SHT30;64830;46.910;6.354;2023-12-14T14:23:21;5.28;88.20
76102;SHT30;64830;46.910;6.354;2023-12-14T14:25:46;5.33;88.20
76102;SHT30;64830;46.910;6.354;2023-12-14T14:28:12;5.34;88.21
76102;SHT30;64830;46.910;6.354;2023-12-14T14:30:37;5.37;88.36
76102;SHT30;64830;46.910;6.354;2023-12-14T14:33:03;5.38;88.27
76102;SHT30;64830;46.910;6.354;2023-12-14T14:35:28;5.37;88.42
76102;SHT30;64830;46.910;6.354;2023-12-14T14:37:54;5.37;88.59
76102;SHT30;64830;46.910;6.354;2023-12-14T14:40:19;5.37;88.43
76102;SHT30;64830;46.910;6.354;2023-12-14T14:42:45;5.35;88.47
76102;SHT30;64830;46.910;6.354;2023-12-14T14:45:11;5.37;88.52
76102;SHT30;64830;46.910;6.354;2023-12-14T14:47:37;5.33;88.61
76102;SHT30;64830;46.910;6.354;2023-12-14T14:50:03;5.31;88.71
76102;SHT30;64830;46.910;6.354;2023-12-14T14:52:33;5.34;88.60
76102;SHT30;64830;46.910;6.354;2023-12-14T14:54:58;5.28;88.36
76102;SHT30;64830;46.910;6.354;2023-12-14T14:57:24;5.27;88.54
76102;SHT30;64830;46.910;6.354;2023-12-14T14:59:50;5.30;88.50
76102;SHT30;64830;46.910;6.354;2023-12-14T15:02:16;5.27;88.33
76102;SHT30;64830;46.910;6.354;2023-12-14T15:04:41;5.27;88.47
76102;SHT30;64830;46.910;6.354;2023-12-14T15:07:06;5.28;88.27
76102;SHT30;64830;46.910;6.354;2023-12-14T15:09:32;5.30;88.35
76102;SHT30;64830;46.910;6.354;2023-12-14T15:11:57;5.30;88.26
76102;SHT30;64830;46.910;6.354;2023-12-14T15:14:23;5.31;88.16
76102;SHT30;64830;46.910;6.354;2023-12-14T15:16:48;5.31;87.98
76102;SHT30;64830;46.910;6.354;2023-12-14T15:19:13;5.27;87.80
76102;SHT30;64830;46.910;6.354;2023-12-14T15:21:39;5.26;88.18
76102;SHT30;64830;46.910;6.354;2023-12-14T15:24:05;5.23;88.04
76102;SHT30;64830;46.910;6.354;2023-12-14T15:26:30;5.22;88.15
76102;SHT30;64830;46.910;6.354;2023-12-14T15:28:58;5.17;87.41
76102;SHT30;64830;46.910;6.354;2023-12-14T15:31:23;5.05;86.81
76102;SHT30;64830;46.910;6.354;2023-12-14T15:33:48;4.93;86.88
76102;SHT30;64830;46.910;6.354;2023-12-14T15:36:14;4.79;87.02
76102;SHT30;64830;46.910;6.354;2023-12-14T15:38:39;4.72;86.89
76102;SHT30;64830;46.910;6.354;2023-12-14T15:41:06;4.65;87.27